Time;durP1;ratioP1;P1;durP2;ratioP2;P2;SDS_P1;SDS_P2;PMS_P1;PMS_P2;Temp;Humidity;BMP_temperature;BMP_pressure;BME280_temperature;BME280_humidity;BME280_pressure;Samples;Min_cycle;Max_cycle;Signal;HPM_P1;HPM_P2
2023/06/17 00:01:14;;;;;;;7.50;6.47;;;;;;;20.43;77.07;96205.56;5028595;28;20343;-74
2023/06/17 00:03:43;;;;;;;9.30;7.03;;;;;;;20.41;77.12;96207.50;5029393;28;20201;-74
2023/06/17 00:06:10;;;;;;;10.47;6.83;;;;;;;20.38;76.60;96206.00;5028301;28;20260;-74
2023/06/17 00:08:37;;;;;;;9.77;7.13;;;;;;;20.37;77.11;96214.88;5029123;28;20314;-75
2023/06/17 00:11:05;;;;;;;11.80;7.07;;;;;;;20.43;76.99;96216.06;5029284;28;20221;-76
2023/06/17 00:13:32;;;;;;;8.10;6.30;;;;;;;20.26;77.70;96209.84;5010489;28;20195;-75
2023/06/17 00:16:00;;;;;;;8.40;6.20;;;;;;;20.14;78.25;96200.47;5023352;28;20218;-74
2023/06/17 00:18:28;;;;;;;8.97;6.30;;;;;;;20.13;78.13;96196.22;5014411;28;20225;-74
2023/06/17 00:20:57;;;;;;;10.20;6.67;;;;;;;20.07;78.62;96212.59;5009823;28;20200;-74
2023/06/17 00:23:25;;;;;;;7.77;6.83;;;;;;;20.07;78.64;96207.31;5008365;28;20217;-76
2023/06/17 00:25:52;;;;;;;11.53;6.03;;;;;;;20.30;77.79;96207.75;5009461;28;20199;-76
2023/06/17 00:28:19;;;;;;;8.70;6.30;;;;;;;20.33;77.46;96203.00;5008725;28;20239;-76
2023/06/17 00:30:47;;;;;;;11.17;6.10;;;;;;;20.36;76.73;96205.31;5008236;28;20204;-75
2023/06/17 00:33:15;;;;;;;11.90;6.93;;;;;;;20.29;77.22;96204.28;5009237;28;20209;-76
2023/06/17 00:35:43;;;;;;;10.23;6.40;;;;;;;20.27;77.18;96203.63;5006678;28;20206;-76
2023/06/17 00:38:11;;;;;;;9.37;6.43;;;;;;;20.26;77.10;96213.28;5009323;28;20634;-74
2023/06/17 00:40:38;;;;;;;10.83;7.30;;;;;;;20.21;77.16;96212.09;5007843;28;20298;-76
2023/06/17 00:43:05;;;;;;;11.03;6.83;;;;;;;19.84;78.18;96212.16;5008022;28;20677;-76
2023/06/17 00:45:38;;;;;;;8.57;5.23;;;;;;;19.71;78.79;96209.03;5008475;28;20241;-76
2023/06/17 00:48:08;;;;;;;9.10;7.27;;;;;;;19.46;80.02;96218.41;5008023;28;20230;-75
2023/06/17 00:50:36;;;;;;;8.37;6.57;;;;;;;19.52;79.34;96219.63;5009009;28;20225;-76
2023/06/17 00:53:05;;;;;;;10.93;6.57;;;;;;;19.65;78.54;96232.44;5007576;28;20203;-77
2023/06/17 00:55:33;;;;;;;7.97;6.30;;;;;;;19.73;77.72;96214.16;5008103;28;20302;-76
2023/06/17 00:58:01;;;;;;;9.77;5.47;;;;;;;19.71;76.24;96210.84;5006330;28;20206;-75
2023/06/17 01:00:28;;;;;;;9.87;4.70;;;;;;;19.99;75.08;96215.13;4991021;28;20687;-74
2023/06/17 01:02:56;;;;;;;7.43;4.70;;;;;;;20.05;74.24;96214.53;5008392;28;20203;-75
2023/06/17 01:05:25;;;;;;;5.13;4.10;;;;;;;20.21;73.47;96212.09;5007598;28;20250;-75
2023/06/17 01:07:58;;;;;;;6.70;4.60;;;;;;;20.41;72.45;96216.22;5008518;28;20225;-74
2023/06/17 01:10:38;;;;;;;7.60;4.50;;;;;;;20.35;72.68;96213.38;5007184;28;20674;-74
2023/06/17 01:13:06;;;;;;;7.43;5.67;;;;;;;20.01;74.39;96213.97;5008470;28;20238;-75
2023/06/17 01:15:36;;;;;;;8.33;5.43;;;;;;;19.84;75.16;96216.59;5007357;28;20584;-75
2023/06/17 01:18:07;;;;;;;6.93;5.63;;;;;;;19.79;75.88;96213.56;4990413;28;20240;-75
2023/06/17 01:20:35;;;;;;;8.27;6.53;;;;;;;19.38;77.88;96226.19;5008182;28;20220;-74
2023/06/17 01:23:05;;;;;;;10.97;7.13;;;;;;;19.56;77.37;96228.06;5007116;28;20717;-74
2023/06/17 01:25:34;;;;;;;8.53;7.33;;;;;;;19.49;77.88;96225.19;5008198;28;20206;-73
2023/06/17 01:28:19;;;;;;;10.93;6.77;;;;;;;19.62;76.83;96223.03;5006939;28;20210;-73
2023/06/17 01:30:47;;;;;;;8.87;6.27;;;;;;;19.48;76.68;96215.66;5007098;28;20236;-73
2023/06/17 01:33:15;;;;;;;8.40;5.30;;;;;;;19.49;74.69;96217.31;5008043;28;20648;-73
2023/06/17 01:35:54;;;;;;;6.00;4.97;;;;;;;19.35;74.82;96231.72;5007353;28;20568;-73
2023/06/17 01:38:43;;;;;;;7.57;5.23;;;;;;;19.28;75.42;96230.63;4990869;28;20214;-73
2023/06/17 01:41:17;;;;;;;6.03;5.27;;;;;;;19.22;75.50;96210.19;4989357;28;20638;-74
2023/06/17 01:43:45;;;;;;;10.20;5.53;;;;;;;19.13;76.14;96229.41;5006722;28;20281;-73
2023/06/17 01:46:13;;;;;;;7.23;6.13;;;;;;;19.13;75.99;96218.91;4989982;28;20268;-73
2023/06/17 01:48:41;;;;;;;7.53;5.83;;;;;;;18.80;77.63;96219.38;4989644;28;20666;-75
2023/06/17 01:51:08;;;;;;;6.47;5.30;;;;;;;18.92;77.40;96210.38;5006783;28;20202;-74
2023/06/17 01:53:35;;;;;;;9.47;6.10;;;;;;;18.98;76.86;96211.66;5006456;28;20256;-73
2023/06/17 01:56:03;;;;;;;6.27;5.13;;;;;;;18.92;76.46;96207.75;5006506;28;20217;-73
2023/06/17 01:58:29;;;;;;;7.30;5.03;;;;;;;18.95;77.02;96207.50;5005343;28;20224;-73
2023/06/17 02:00:57;;;;;;;6.43;5.40;;;;;;;19.07;76.14;96222.09;5007669;28;20766;-74
2023/06/17 02:03:24;;;;;;;6.27;5.50;;;;;;;19.21;75.64;96208.53;5007300;28;20205;-75
2023/06/17 02:05:51;;;;;;;10.17;5.23;;;;;;;19.37;75.20;96213.22;5007178;28;20201;-74
2023/06/17 02:08:19;;;;;;;8.70;5.57;;;;;;;19.39;75.51;96211.28;5007723;28;20206;-74
2023/06/17 02:10:46;;;;;;;9.30;5.53;;;;;;;18.72;78.31;96163.34;5006944;28;20198;-76
2023/06/17 02:13:13;;;;;;;9.37;5.70;;;;;;;18.62;80.18;96195.69;4990131;28;20813;-71
2023/06/17 02:15:42;;;;;;;9.10;6.30;;;;;;;18.55;80.51;96198.97;5006377;28;20603;-73
2023/06/17 02:18:12;;;;;;;7.10;6.17;;;;;;;18.36;81.41;96207.66;5006271;28;20202;-74
2023/06/17 02:20:41;;;;;;;8.53;5.90;;;;;;;18.32;81.74;96202.84;5007011;28;20209;-73
2023/06/17 02:23:08;;;;;;;9.43;5.73;;;;;;;18.37;80.88;96203.22;5007160;28;20208;-73
2023/06/17 02:25:39;;;;;;;7.90;5.33;;;;;;;18.43;79.98;96202.69;5007464;28;20213;-73
2023/06/17 02:28:06;;;;;;;8.27;6.13;;;;;;;18.50;79.37;96181.06;5006326;28;20275;-72
2023/06/17 02:30:34;;;;;;;13.40;5.33;;;;;;;18.77;78.60;96219.69;5007593;28;20715;-74
2023/06/17 02:33:01;;;;;;;7.30;4.97;;;;;;;18.99;77.78;96195.75;5005077;28;20216;-73
2023/06/17 02:35:28;;;;;;;10.80;6.20;;;;;;;19.18;77.61;96193.06;4989991;28;20211;-73
2023/06/17 02:37:57;;;;;;;7.33;5.40;;;;;;;19.22;77.29;96183.94;4989168;28;20297;-76
2023/06/17 02:40:24;;;;;;;8.53;6.10;;;;;;;19.04;78.70;96180.38;5005541;28;20208;-73
2023/06/17 02:42:51;;;;;;;7.43;6.03;;;;;;;19.07;78.56;96179.28;5006274;28;20229;-74
2023/06/17 02:45:19;;;;;;;12.20;5.90;;;;;;;19.07;78.76;96180.13;4988831;28;20217;-77
2023/06/17 02:47:47;;;;;;;12.30;6.27;;;;;;;19.07;78.72;96179.28;4989605;28;20320;-76
2023/06/17 02:50:14;;;;;;;9.70;6.30;;;;;;;18.93;79.33;96164.00;5004768;28;20268;-74
2023/06/17 02:52:41;;;;;;;11.17;6.77;;;;;;;19.11;79.08;96172.78;5006163;28;20243;-73
2023/06/17 02:55:09;;;;;;;8.60;6.17;;;;;;;19.04;79.07;96161.22;5006237;28;20205;-74
2023/06/17 02:57:37;;;;;;;7.50;6.07;;;;;;;19.05;79.26;96173.34;4989499;28;20234;-74
2023/06/17 03:00:06;;;;;;;8.83;6.57;;;;;;;18.00;83.01;96152.47;4973768;28;20206;-74
2023/06/17 03:02:33;;;;;;;12.67;6.60;;;;;;;18.32;82.34;96160.91;4988444;28;20220;-74
2023/06/17 03:05:00;;;;;;;11.87;6.70;;;;;;;18.15;82.09;96130.13;5007196;28;20242;-73
2023/06/17 03:07:36;;;;;;;10.10;6.47;;;;;;;18.58;81.38;96177.72;5004566;28;20240;-74
2023/06/17 03:10:03;;;;;;;9.80;6.63;;;;;;;18.66;80.78;96183.94;4989638;28;20796;-74
2023/06/17 03:12:36;;;;;;;11.40;6.47;;;;;;;19.02;79.78;96182.31;5005488;28;20309;-78
2023/06/17 03:15:04;;;;;;;9.10;6.03;;;;;;;19.06;78.73;96172.38;4988809;28;20658;-77
2023/06/17 03:17:31;;;;;;;11.43;6.37;;;;;;;19.04;79.35;96175.13;4989566;28;20220;-77
2023/06/17 03:20:00;;;;;;;7.90;6.23;;;;;;;19.21;78.64;96166.53;4990488;28;20201;-75
2023/06/17 03:22:29;;;;;;;11.93;6.07;;;;;;;19.37;78.14;96169.38;5009375;28;20214;-77
2023/06/17 03:24:56;;;;;;;16.30;6.30;;;;;;;19.44;77.71;96165.22;5009276;28;20210;-76
2023/06/17 03:27:24;;;;;;;11.17;6.63;;;;;;;19.61;77.37;96184.63;4992882;28;20289;-75
2023/06/17 03:29:51;;;;;;;13.00;6.57;;;;;;;19.51;77.66;96188.28;5008451;28;20324;-74
2023/06/17 03:32:18;;;;;;;12.90;6.57;;;;;;;19.56;77.24;96188.69;5009908;28;20296;-75
2023/06/17 03:34:46;;;;;;;10.23;6.97;;;;;;;19.22;78.21;96185.72;4992789;28;20332;-73
2023/06/17 03:37:14;;;;;;;10.60;6.43;;;;;;;19.26;78.33;96177.44;5000017;28;20209;-75
2023/06/17 03:39:42;;;;;;;9.57;6.40;;;;;;;19.54;77.63;96196.69;5012450;28;20285;-75
2023/06/17 03:42:14;;;;;;;12.97;5.60;;;;;;;19.22;77.66;96178.69;5028688;28;20233;-74
2023/06/17 03:44:42;;;;;;;8.63;5.40;;;;;;;19.12;77.95;96192.81;5030167;28;20209;-74
2023/06/17 03:47:09;;;;;;;9.83;5.30;;;;;;;18.95;78.58;96196.16;5027709;28;20601;-74
2023/06/17 03:49:37;;;;;;;9.73;5.87;;;;;;;18.73;78.60;96149.28;5007995;28;20225;-74
2023/06/17 03:52:05;;;;;;;8.57;5.27;;;;;;;19.06;78.68;96219.63;5007710;28;20288;-76
2023/06/17 03:54:32;;;;;;;6.40;5.23;;;;;;;19.11;78.27;96220.00;5007606;28;20280;-75
2023/06/17 03:56:59;;;;;;;7.60;5.50;;;;;;;19.25;77.36;96206.44;5009956;28;20244;-74
2023/06/17 03:59:28;;;;;;;7.17;5.33;;;;;;;19.20;77.45;96222.63;4990678;28;20198;-75
2023/06/17 04:01:55;;;;;;;8.13;5.97;;;;;;;18.98;78.25;96212.44;5010349;28;20205;-75
2023/06/17 04:04:22;;;;;;;5.83;5.20;;;;;;;18.95;79.19;96228.50;5009243;28;20257;-74
2023/06/17 04:06:50;;;;;;;10.03;6.47;;;;;;;18.53;81.07;96227.97;5017754;28;20684;-74
2023/06/17 04:09:18;;;;;;;10.10;6.80;;;;;;;18.18;83.29;96226.81;5018871;28;20226;-74
2023/06/17 04:11:49;;;;;;;15.30;7.57;;;;;;;18.19;84.18;96229.31;5017983;28;20228;-78
2023/06/17 04:14:16;;;;;;;11.60;7.57;;;;;;;18.27;83.96;96221.59;5001546;28;20205;-77
2023/06/17 04:16:49;;;;;;;11.77;8.00;;;;;;;18.38;83.34;96212.78;5006906;28;20219;-73
2023/06/17 04:19:17;;;;;;;11.30;8.47;;;;;;;18.41;84.29;96225.59;5006417;28;20217;-74
2023/06/17 04:21:45;;;;;;;9.80;6.73;;;;;;;18.59;84.27;96237.06;5000882;28;20206;-75
2023/06/17 04:24:12;;;;;;;11.83;7.57;;;;;;;18.82;83.33;96234.97;5001498;28;20199;-75
2023/06/17 04:26:43;;;;;;;12.37;7.90;;;;;;;19.08;81.71;96239.50;4999710;28;20209;-78
2023/06/17 04:29:10;;;;;;;9.77;7.83;;;;;;;18.84;80.93;96239.13;4999489;28;20637;-75
2023/06/17 04:31:40;;;;;;;9.60;7.17;;;;;;;18.74;80.45;96240.94;5000798;28;20240;-74
2023/06/17 04:34:12;;;;;;;9.07;7.00;;;;;;;19.07;80.23;96253.59;5029685;28;20697;-74
2023/06/17 04:36:39;;;;;;;8.50;6.60;;;;;;;19.19;79.52;96252.47;5014303;28;20292;-74
2023/06/17 04:39:07;;;;;;;7.87;6.43;;;;;;;19.37;77.76;96256.03;5015347;28;20201;-77
2023/06/17 04:41:38;;;;;;;8.87;5.53;;;;;;;19.57;75.70;96256.81;5017276;28;20201;-78
2023/06/17 04:44:05;;;;;;;9.93;6.27;;;;;;;19.54;75.49;96253.66;5001435;28;20751;-74
2023/06/17 04:46:33;;;;;;;8.30;5.67;;;;;;;19.48;75.66;96250.63;4999056;28;20599;-75
2023/06/17 04:49:02;;;;;;;7.63;5.50;;;;;;;19.70;75.73;96248.59;4999505;28;20607;-75
2023/06/17 04:51:29;;;;;;;10.83;5.60;;;;;;;19.82;74.50;96236.94;5017719;28;20194;-76
2023/06/17 04:53:56;;;;;;;9.63;5.37;;;;;;;19.97;73.79;96253.88;5000665;28;20224;-75
2023/06/17 04:56:26;;;;;;;8.90;5.00;;;;;;;19.85;74.56;96244.50;5016617;28;20701;-75
2023/06/17 04:58:54;;;;;;;6.93;5.50;;;;;;;19.78;74.74;96225.06;4984415;28;20295;-75
2023/06/17 05:01:21;;;;;;;7.00;5.40;;;;;;;20.02;73.82;96241.09;4984151;28;20211;-76
2023/06/17 05:03:50;;;;;;;10.07;6.00;;;;;;;19.70;73.90;96240.72;5015808;28;20210;-76
2023/06/17 05:06:18;;;;;;;6.10;5.50;;;;;;;19.67;75.32;96251.50;5019498;28;20217;-76
2023/06/17 05:08:45;;;;;;;10.53;6.17;;;;;;;19.82;76.20;96239.56;4999816;28;20598;-77
2023/06/17 05:11:17;;;;;;;12.53;6.73;;;;;;;20.00;75.44;96248.31;5009320;28;20230;-77
2023/06/17 05:13:45;;;;;;;9.53;5.83;;;;;;;20.07;74.46;96238.88;4998315;28;20681;-77
2023/06/17 05:16:12;;;;;;;9.07;6.90;;;;;;;20.01;76.06;96252.59;4998189;28;20202;-76
2023/06/17 05:18:41;;;;;;;9.30;7.17;;;;;;;19.99;77.30;96246.66;5007032;28;20293;-75
2023/06/17 05:21:08;;;;;;;9.83;8.17;;;;;;;19.69;78.94;96225.91;5018161;28;20627;-77
2023/06/17 05:23:35;;;;;;;10.37;7.43;;;;;;;19.68;80.84;96255.81;4999554;28;20206;-73
2023/06/17 05:26:04;;;;;;;8.73;7.43;;;;;;;19.79;80.65;96255.59;4999480;28;20264;-73
2023/06/17 05:28:31;;;;;;;9.63;7.10;;;;;;;19.77;81.60;96260.19;4999018;28;20206;-75
2023/06/17 05:30:59;;;;;;;9.57;6.93;;;;;;;19.81;80.35;96258.91;5028169;28;20611;-74
2023/06/17 05:33:26;;;;;;;11.57;8.10;;;;;;;19.96;79.71;96263.56;5003266;28;20989;-76
2023/06/17 05:35:54;;;;;;;11.23;7.70;;;;;;;19.76;80.18;96269.88;5007424;28;20646;-74
2023/06/17 05:38:21;;;;;;;8.90;7.43;;;;;;;19.98;79.33;96268.66;5014873;28;20655;-75
2023/06/17 05:40:48;;;;;;;9.60;8.03;;;;;;;19.95;79.23;96274.19;5006679;28;20203;-77
2023/06/17 05:43:15;;;;;;;17.87;8.23;;;;;;;20.02;78.45;96281.38;5015430;28;20194;-77
2023/06/17 05:45:42;;;;;;;9.30;6.93;;;;;;;20.01;78.45;96276.25;5009348;28;20704;-78
2023/06/17 05:48:13;;;;;;;10.90;7.77;;;;;;;20.06;78.30;96295.88;5008522;28;20747;-78
2023/06/17 05:50:40;;;;;;;12.03;7.57;;;;;;;20.21;78.51;96285.72;5009406;28;20661;-75
2023/06/17 05:53:07;;;;;;;9.20;6.30;;;;;;;20.02;78.49;96283.16;5009198;28;20199;-77
2023/06/17 05:55:34;;;;;;;13.83;8.00;;;;;;;19.86;79.67;96281.19;5008268;28;20229;-76
2023/06/17 05:58:02;;;;;;;13.30;7.90;;;;;;;20.09;79.93;96289.50;5027241;28;20222;-76
2023/06/17 06:00:33;;;;;;;9.43;8.13;;;;;;;19.69;81.07;96252.19;5008029;28;20206;-76
2023/06/17 06:03:00;;;;;;;12.13;8.20;;;;;;;19.58;82.95;96299.69;5009463;28;20209;-74
2023/06/17 06:05:27;;;;;;;16.30;8.13;;;;;;;19.53;83.78;96301.91;5008139;28;20224;-75
2023/06/17 06:07:54;;;;;;;13.13;9.53;;;;;;;19.41;83.88;96299.41;5009039;28;20320;-77
2023/06/17 06:10:21;;;;;;;13.60;8.20;;;;;;;19.40;83.47;96310.91;5008709;28;20228;-76
2023/06/17 06:12:54;;;;;;;21.13;13.40;;;;;;;19.47;82.23;96309.34;5008424;28;20707;-76
2023/06/17 06:15:23;;;;;;;13.03;7.87;;;;;;;19.42;82.22;96314.22;5009410;28;20727;-78
2023/06/17 06:17:50;;;;;;;9.80;8.07;;;;;;;19.66;81.29;96318.19;5007994;28;20602;-76
2023/06/17 06:20:18;;;;;;;32.47;18.97;;;;;;;19.78;80.34;96311.78;5009028;28;20229;-78
2023/06/17 06:22:45;;;;;;;17.50;11.20;;;;;;;19.13;84.06;96300.28;4991435;28;20611;-77
2023/06/17 06:25:12;;;;;;;11.17;9.70;;;;;;;19.03;85.95;96315.22;5026195;28;20217;-76
2023/06/17 06:27:39;;;;;;;13.40;8.63;;;;;;;18.82;87.71;96317.16;5025928;28;20198;-77
2023/06/17 06:30:08;;;;;;;11.10;9.57;;;;;;;18.61;90.82;96316.44;5008362;28;20335;-77
2023/06/17 06:32:39;;;;;;;13.77;8.77;;;;;;;19.01;89.30;96317.16;5025463;28;20213;-75
2023/06/17 06:35:06;;;;;;;18.17;10.00;;;;;;;18.90;88.93;96277.94;5025373;28;20241;-76
2023/06/17 06:37:33;;;;;;;13.70;9.77;;;;;;;19.14;88.64;96322.13;5009098;28;20293;-77
2023/06/17 06:40:01;;;;;;;14.27;9.40;;;;;;;18.80;88.57;96282.34;5007127;28;20715;-77
2023/06/17 06:42:31;;;;;;;13.50;9.30;;;;;;;19.21;87.80;96323.19;5005365;28;20290;-74
2023/06/17 06:45:15;;;;;;;13.23;10.23;;;;;;;19.41;88.56;96322.25;5002154;28;20224;-76
2023/06/17 06:47:44;;;;;;;21.43;11.27;;;;;;;19.53;88.34;96315.84;4998250;28;20222;-76
2023/06/17 06:50:11;;;;;;;12.03;8.83;;;;;;;19.46;87.40;96312.13;5001302;28;20240;-75
2023/06/17 06:52:39;;;;;;;13.47;8.57;;;;;;;19.44;86.43;96309.66;4985077;28;20340;-75
2023/06/17 06:55:07;;;;;;;12.30;9.90;;;;;;;19.43;87.40;96300.09;5002231;28;20205;-75
2023/06/17 06:57:35;;;;;;;14.33;10.43;;;;;;;19.59;88.76;96309.19;5008810;28;20210;-75
2023/06/17 07:00:08;;;;;;;22.20;12.40;;;;;;;19.68;89.15;96317.03;5010810;28;20272;-74
2023/06/17 07:02:37;;;;;;;16.70;11.80;;;;;;;19.77;89.27;96310.94;5022224;28;20239;-76
2023/06/17 07:05:05;;;;;;;13.97;11.07;;;;;;;19.73;87.77;96309.56;5019990;28;20235;-76
2023/06/17 07:07:41;;;;;;;15.27;10.93;;;;;;;19.88;87.76;96312.56;5032130;28;20205;-76
2023/06/17 07:10:09;;;;;;;14.73;11.00;;;;;;;19.72;88.74;96305.28;5030761;28;20236;-76
2023/06/17 07:12:36;;;;;;;14.53;11.00;;;;;;;19.66;87.63;96302.41;5032234;28;20209;-77
2023/06/17 07:15:05;;;;;;;12.97;10.77;;;;;;;19.62;88.92;96301.03;5030812;28;20236;-76
2023/06/17 07:17:32;;;;;;;14.40;10.60;;;;;;;19.72;88.39;96307.91;5031633;28;20197;-75
2023/06/17 07:20:02;;;;;;;14.37;11.60;;;;;;;19.45;88.92;96292.09;5031950;28;20258;-76
2023/06/17 07:22:30;;;;;;;15.60;11.60;;;;;;;19.38;89.95;96299.72;5030507;28;20202;-76
2023/06/17 07:24:57;;;;;;;17.53;11.30;;;;;;;19.14;90.02;96256.50;5049832;28;20260;-76
2023/06/17 07:27:24;;;;;;;13.87;10.57;;;;;;;19.37;90.00;96281.50;5030473;28;20210;-75
2023/06/17 07:29:52;;;;;;;14.03;10.37;;;;;;;19.66;87.25;96299.78;5049778;28;20225;-76
2023/06/17 07:32:19;;;;;;;12.90;9.77;;;;;;;19.81;87.29;96306.22;5048660;28;20205;-75
2023/06/17 07:34:48;;;;;;;15.40;9.77;;;;;;;19.84;87.20;96290.16;5031541;28;20193;-74
2023/06/17 07:37:15;;;;;;;12.27;9.83;;;;;;;19.74;87.57;96298.06;5049364;28;20236;-75
2023/06/17 07:39:46;;;;;;;13.37;10.50;;;;;;;19.94;87.79;96307.56;5030355;28;20206;-74
2023/06/17 07:42:16;;;;;;;10.77;8.23;;;;;;;19.84;87.66;96304.16;5049266;28;20299;-74
2023/06/17 07:44:46;;;;;;;14.63;11.23;;;;;;;20.02;88.14;96305.03;5047866;28;20209;-74
2023/06/17 07:47:13;;;;;;;18.70;14.27;;;;;;;20.00;88.64;96296.47;5031683;28;20259;-76
2023/06/17 07:49:40;;;;;;;15.20;9.50;;;;;;;19.99;88.41;96259.81;5024816;28;20221;-76
2023/06/17 07:52:07;;;;;;;16.97;10.97;;;;;;;20.39;87.38;96289.22;5028638;28;20197;-76
2023/06/17 07:54:35;;;;;;;13.93;9.67;;;;;;;20.39;87.79;96283.94;5029024;28;20218;-76
2023/06/17 07:57:03;;;;;;;80.53;16.47;;;;;;;20.55;88.32;96297.25;5027603;28;20217;-78
2023/06/17 07:59:31;;;;;;;14.70;11.33;;;;;;;20.79;86.75;96294.06;5029111;28;20277;-77
2023/06/17 08:01:58;;;;;;;16.13;12.17;;;;;;;20.75;86.34;96288.25;4993199;28;20220;-76
2023/06/17 08:04:25;;;;;;;15.07;12.50;;;;;;;20.96;86.08;96290.56;5011326;28;20356;-75
2023/06/17 08:06:52;;;;;;;15.87;13.23;;;;;;;21.10;86.06;96302.41;5027291;28;20750;-77
2023/06/17 08:09:19;;;;;;;15.50;11.20;;;;;;;21.29;84.83;96297.75;5028462;28;20194;-76
2023/06/17 08:11:47;;;;;;;14.90;11.70;;;;;;;21.42;83.51;96292.09;5027961;28;20239;-76
2023/06/17 08:14:16;;;;;;;12.63;9.40;;;;;;;21.65;80.83;96301.16;5027618;28;20214;-77
2023/06/17 08:16:43;;;;;;;11.30;8.33;;;;;;;21.52;79.15;96313.91;5028464;28;20204;-76
2023/06/17 08:19:11;;;;;;;10.73;9.20;;;;;;;21.41;80.61;96283.34;5026984;28;20253;-76
2023/06/17 08:21:42;;;;;;;11.93;9.53;;;;;;;21.69;80.14;96289.31;5028316;28;20203;-75
2023/06/17 08:24:18;;;;;;;9.77;8.70;;;;;;;21.93;79.96;96280.75;5027846;28;20230;-76
2023/06/17 08:26:45;;;;;;;13.43;10.57;;;;;;;22.13;79.08;96279.50;5010310;28;20196;-78
2023/06/17 08:29:13;;;;;;;15.07;9.63;;;;;;;22.30;77.97;96279.38;5010437;28;20256;-76
2023/06/17 08:31:42;;;;;;;10.70;8.90;;;;;;;22.49;77.57;96289.66;5026858;28;20227;-77
2023/06/17 08:34:11;;;;;;;9.97;8.90;;;;;;;22.49;77.99;96294.94;5028280;28;20193;-76
2023/06/17 08:36:49;;;;;;;10.07;8.70;;;;;;;22.69;77.10;96302.59;5025599;28;20307;-77
2023/06/17 08:39:19;;;;;;;9.67;8.43;;;;;;;22.68;76.26;96293.84;5010716;28;20656;-77
2023/06/17 08:41:48;;;;;;;10.60;8.60;;;;;;;22.61;76.77;96298.94;5025727;28;20247;-76
2023/06/17 08:44:16;;;;;;;10.30;8.77;;;;;;;22.80;76.46;96303.09;5027516;28;20208;-76
2023/06/17 08:46:44;;;;;;;11.10;8.03;;;;;;;22.89;76.28;96298.66;5027472;28;20788;-75
2023/06/17 08:49:13;;;;;;;12.17;8.37;;;;;;;22.73;77.04;96280.16;5009113;28;20205;-76
2023/06/17 08:51:40;;;;;;;10.57;8.30;;;;;;;22.88;77.02;96297.00;5027847;28;20939;-76
2023/06/17 08:54:09;;;;;;;8.77;7.80;;;;;;;22.73;76.45;96298.66;5026740;28;20291;-77
2023/06/17 08:56:37;;;;;;;11.47;8.93;;;;;;;22.69;75.86;96268.28;5027952;28;20200;-77
2023/06/17 08:59:04;;;;;;;10.23;8.57;;;;;;;22.67;76.50;96271.91;4993077;28;20282;-76
2023/06/17 09:01:32;;;;;;;8.23;7.43;;;;;;;22.80;76.55;96284.63;5027432;28;20213;-76
2023/06/17 09:04:01;;;;;;;10.83;7.33;;;;;;;22.76;75.56;96288.59;5027746;28;20287;-77
2023/06/17 09:06:29;;;;;;;10.07;7.50;;;;;;;22.52;75.23;96267.41;5026202;28;20212;-76
2023/06/17 09:08:57;;;;;;;11.27;8.47;;;;;;;22.64;76.20;96274.06;4993639;28;20227;-77
2023/06/17 09:11:30;;;;;;;10.47;8.07;;;;;;;22.81;74.36;96281.00;5026310;28;20233;-76
2023/06/17 09:14:37;;;;;;;12.43;8.37;;;;;;;22.46;74.77;96221.34;5027477;28;20296;-78
2023/06/17 09:18:08;;;;;;;8.13;7.07;;;;;;;22.94;74.16;96286.63;5025501;28;20213;-77
2023/06/17 09:21:28;;;;;;;7.90;6.80;;;;;;;22.86;74.12;96286.59;5025726;28;20342;-78
2023/06/17 09:24:49;;;;;;;11.77;6.87;;;;;;;22.78;74.96;96270.75;5025221;28;20200;-78
2023/06/17 09:27:30;;;;;;;11.33;7.20;;;;;;;23.02;75.36;96293.72;5024503;28;20197;-77
2023/06/17 09:30:09;;;;;;;9.33;7.10;;;;;;;23.12;74.59;96302.31;5022667;28;20215;-78
2023/06/17 09:32:42;;;;;;;9.20;5.73;;;;;;;23.21;73.66;96296.03;5016845;28;20196;-78
2023/06/17 09:35:17;;;;;;;10.00;6.80;;;;;;;23.10;74.45;96299.81;5012408;28;20245;-77
2023/06/17 09:37:52;;;;;;;8.00;5.83;;;;;;;23.11;73.35;96279.53;5006249;28;20258;-77
2023/06/17 09:40:31;;;;;;;7.63;6.10;;;;;;;23.25;73.61;96284.13;4997398;28;20765;-77
2023/06/17 09:43:02;;;;;;;12.80;6.80;;;;;;;23.35;73.68;96296.22;5017322;28;20209;-76
2023/06/17 09:45:54;;;;;;;10.53;5.23;;;;;;;23.34;72.47;96297.22;5013469;28;20202;-76
2023/06/17 09:48:24;;;;;;;14.60;8.27;;;;;;;23.39;71.21;96294.88;5008376;28;20214;-76
2023/06/17 09:50:56;;;;;;;7.13;5.60;;;;;;;23.43;71.42;96304.13;5006159;28;20230;-76
2023/06/17 09:53:29;;;;;;;8.53;5.13;;;;;;;23.37;70.36;96270.44;5007217;28;20675;-77
2023/06/17 09:55:58;;;;;;;8.67;5.93;;;;;;;23.43;70.33;96298.84;5016128;28;20205;-77
2023/06/17 09:58:32;;;;;;;7.53;5.37;;;;;;;23.50;70.95;96291.06;5008365;28;20199;-76
2023/06/17 10:01:05;;;;;;;6.60;5.40;;;;;;;23.34;70.81;96301.69;5026831;28;20206;-76
2023/06/17 10:03:33;;;;;;;10.53;5.33;;;;;;;23.66;69.99;96306.91;5025502;28;20238;-77
2023/06/17 10:06:08;;;;;;;7.47;5.13;;;;;;;23.97;69.04;96299.88;5026797;28;20225;-77
2023/06/17 10:08:48;;;;;;;7.60;5.57;;;;;;;24.06;68.95;96296.25;5026325;28;20212;-76
2023/06/17 10:11:20;;;;;;;11.23;5.20;;;;;;;24.20;67.38;96308.78;5007805;28;20851;-77
2023/06/17 10:13:59;;;;;;;9.43;5.03;;;;;;;24.08;67.64;96309.31;5026837;28;20209;-77
2023/06/17 10:16:30;;;;;;;9.80;4.80;;;;;;;24.01;68.84;96308.28;5025356;28;20207;-77
2023/06/17 10:19:01;;;;;;;10.30;4.90;;;;;;;23.96;68.13;96282.38;5026364;28;20242;-76
2023/06/17 10:21:29;;;;;;;8.37;4.83;;;;;;;24.16;67.87;96296.03;5025659;28;20278;-77
2023/06/17 10:23:59;;;;;;;7.33;5.03;;;;;;;24.16;67.61;96303.97;5025405;28;20197;-76
2023/06/17 10:26:28;;;;;;;8.97;4.40;;;;;;;24.11;68.09;96295.75;5026096;28;20206;-76
2023/06/17 10:29:07;;;;;;;12.90;5.63;;;;;;;24.08;67.90;96301.38;5025254;28;20299;-77
2023/06/17 10:31:38;;;;;;;4.83;3.87;;;;;;;23.87;68.24;96291.31;5030408;28;20286;-76
2023/06/17 10:34:08;;;;;;;9.77;4.53;;;;;;;23.82;68.64;96291.00;5029672;28;20658;-76
2023/06/17 10:36:35;;;;;;;7.83;4.80;;;;;;;23.82;68.86;96280.41;5023628;28;20741;-73
2023/06/17 10:39:11;;;;;;;11.40;4.93;;;;;;;23.84;68.40;96277.63;5011093;28;20211;-79
2023/06/17 10:41:38;;;;;;;5.57;4.33;;;;;;;23.80;68.45;96287.69;5009588;28;20208;-78
2023/06/17 10:44:28;;;;;;;8.67;4.67;;;;;;;23.65;69.80;96288.56;5011224;28;20196;-78
2023/06/17 10:46:56;;;;;;;12.00;5.40;;;;;;;23.66;69.18;96285.75;5009802;28;20235;-81
2023/06/17 10:49:23;;;;;;;7.43;4.40;;;;;;;23.82;69.85;96275.13;5012815;28;20191;-75
2023/06/17 10:51:56;;;;;;;6.13;4.50;;;;;;;23.86;69.96;96288.84;5011977;28;20334;-77
2023/06/17 10:54:32;;;;;;;5.70;4.70;;;;;;;24.03;70.87;96275.41;5024643;28;20191;-73
2023/06/17 10:57:01;;;;;;;6.67;5.40;;;;;;;24.12;70.53;96268.28;5020957;28;20202;-75
2023/06/17 10:59:32;;;;;;;9.50;5.00;;;;;;;23.91;70.52;96268.81;5025250;28;20298;-79
2023/06/17 11:02:07;;;;;;;7.93;5.20;;;;;;;24.07;70.79;96268.78;5029056;28;20209;-76
2023/06/17 11:04:36;;;;;;;6.83;4.33;;;;;;;24.24;70.45;96273.03;5029313;28;20206;-75
2023/06/17 11:07:04;;;;;;;9.03;4.03;;;;;;;24.24;67.32;96254.50;5029796;28;20205;-77
2023/06/17 11:09:33;;;;;;;5.20;3.40;;;;;;;24.47;65.84;96269.59;5030093;28;20204;-76
2023/06/17 11:12:02;;;;;;;5.63;4.00;;;;;;;24.40;66.91;96253.56;5028754;28;20739;-76
2023/06/17 11:14:31;;;;;;;7.03;3.20;;;;;;;24.39;65.43;96264.34;5029947;28;20229;-77
2023/06/17 11:16:58;;;;;;;6.53;3.77;;;;;;;24.71;65.26;96253.56;5028425;28;20193;-77
2023/06/17 11:19:25;;;;;;;4.60;3.10;;;;;;;24.76;64.81;96243.28;5029812;28;20250;-76
2023/06/17 11:22:07;;;;;;;5.07;3.67;;;;;;;25.03;65.17;96246.22;5028719;28;20231;-76
2023/06/17 11:24:35;;;;;;;5.63;2.90;;;;;;;25.14;60.84;96244.16;5028598;28;20725;-76
2023/06/17 11:27:05;;;;;;;3.33;2.80;;;;;;;24.94;60.07;96238.50;5029168;28;20250;-76
2023/06/17 11:29:33;;;;;;;3.13;2.60;;;;;;;25.01;60.71;96242.94;5028320;28;20205;-77
2023/06/17 11:32:01;;;;;;;4.37;2.83;;;;;;;24.87;58.62;96245.53;5028238;28;20269;-76
2023/06/17 11:34:31;;;;;;;7.00;2.70;;;;;;;24.86;59.20;96255.28;5027985;28;20222;-77
2023/06/17 11:37:01;;;;;;;4.90;3.23;;;;;;;24.64;60.61;96239.38;5029301;28;20733;-76
2023/06/17 11:39:30;;;;;;;4.17;2.90;;;;;;;24.49;60.76;96238.47;5028600;28;20197;-77
2023/06/17 11:42:02;;;;;;;4.10;2.60;;;;;;;24.28;59.84;96254.97;5028277;28;20192;-77